Terminal Aerodrome Forecast
Issued by NWS

Home | Current Version | Previous Version | Text Only | Print | Product List | Glossary On
Versions: 1 2 3 4 5 6 7 8 9 10 11 12 13 14 15 16
000
FTUS42 KTBW 212333
TAFRSW
TAF
KRSW 212333Z 2200/2224 09010KT P6SM SCT050
     FM220400 07003KT P6SM SKC
      TEMPO 2209/2213 5SM BR
     FM221400 09007KT P6SM SCT025
      TEMPO 2214/2216 BKN025
     FM221700 10012KT P6SM SCT040=

USA.gov is the U.S. government's official web portal to all federal, state and local government web resources and services.